Lily Dale, New York
Current Conditions -  °F | °C
As of 1:53 AM on Saturday 25 Oct 2014 (Local Time) from KDKK Reporting Station
Overcast Overcast  
Wind Chill: 52°   Ceiling: 6000
Heat Index: 52°   Visibility: 10mi
Dew Point: 46°   Wind: 7mph
Humidity: 80%   Direction: 220°SW
Pressure: 29.93"   Gusts: NA
Location:  42.35°N, 79.32°W
Report Text: KDKK 250553Z AUTO 22006KT 10SM FEW041 OVC060 11/08 A2993 RMK AO2 SLP136 T01110078 10111 20078 56013
Loading
Personal Weather Stations






























Interactive Weather Map
Tropical Storm Tracking
New forecast layout! Learn more

10-Day Weather Forecast

Advertisements
Track Severe Weather on mobile